Richboro, Pennsylvania
Current Conditions -  °F | °C
As of 12:54 AM on Tuesday 21 Oct 2014 (Local Time) from KPNE Reporting Station
Scattered Clouds Scattered Clouds  
Wind Chill: 53°   Ceiling: Unl
Heat Index: 53°   Visibility: 10mi
Dew Point: 43°   Wind: 0mph
Humidity: 69%   Direction: NA
Pressure: 29.97"   Gusts: NA
Location:  40.21°N, 75.01°W
Report Text: KPNE 210454Z 00000KT 10SM SCT050 12/06 A2997 RMK AO2 SLP147 T01170061 401720017 $
Loading
Personal Weather Stations






























Interactive Weather Map
Tropical Storm Tracking
New forecast layout! Learn more

10-Day Weather Forecast

Advertisements
Track Severe Weather on mobile